createdAt,value
2018-03-04T00:01:46.736Z,23.38
2018-03-04T00:04:14.755Z,24.75
2018-03-04T00:06:42.743Z,24.37
2018-03-04T00:09:10.750Z,24.75
2018-03-04T00:11:38.815Z,23.70
2018-03-04T00:14:06.823Z,24.60
2018-03-04T00:16:34.823Z,24.98
2018-03-04T00:19:02.890Z,23.20
2018-03-04T00:21:30.860Z,25.62
2018-03-04T00:23:58.871Z,23.65
2018-03-04T00:26:26.873Z,22.52
2018-03-04T00:28:54.877Z,24.48
2018-03-04T00:31:22.910Z,22.83
2018-03-04T00:33:51.763Z,24.77
2018-03-04T00:36:19.979Z,25.00
2018-03-04T00:38:48.001Z,26.08
2018-03-04T00:41:16.145Z,24.87
2018-03-04T00:43:44.125Z,24.80
2018-03-04T00:46:12.134Z,25.70
2018-03-04T00:48:40.124Z,23.90
2018-03-04T00:51:08.141Z,26.00
2018-03-04T00:53:36.138Z,21.65
2018-03-04T00:56:04.173Z,25.77
2018-03-04T00:58:32.166Z,24.65
2018-03-04T01:01:00.220Z,25.48
2018-03-04T01:03:28.248Z,24.65
2018-03-04T01:05:56.332Z,24.45
2018-03-04T01:08:24.375Z,24.45
2018-03-04T01:10:52.405Z,25.48
2018-03-04T01:13:20.398Z,24.15
2018-03-04T01:15:48.418Z,25.95
2018-03-04T01:18:16.453Z,25.73
2018-03-04T01:20:44.454Z,25.73
2018-03-04T01:23:12.499Z,28.08
2018-03-04T01:25:40.526Z,25.27
2018-03-04T01:28:08.598Z,26.15
2018-03-04T01:30:36.726Z,27.35
2018-03-04T01:33:04.746Z,27.83
2018-03-04T01:35:32.823Z,26.77
2018-03-04T01:38:00.881Z,24.73
2018-03-04T01:40:28.922Z,26.60
2018-03-04T01:42:56.995Z,27.92
2018-03-04T01:45:25.015Z,24.30
2018-03-04T01:47:53.036Z,25.42
2018-03-04T01:50:21.100Z,24.90
2018-03-04T01:52:49.130Z,26.90
2018-03-04T01:55:17.159Z,26.45
2018-03-04T01:57:45.220Z,25.65
2018-03-04T02:00:13.209Z,27.20
2018-03-04T02:02:41.226Z,26.10
2018-03-04T02:05:09.250Z,27.08
2018-03-04T02:07:37.313Z,27.73
2018-03-04T02:10:05.324Z,25.55
2018-03-04T02:12:33.364Z,27.98
2018-03-04T02:15:01.393Z,27.90
2018-03-04T02:17:29.405Z,25.90
2018-03-04T02:19:57.433Z,25.23
2018-03-04T02:22:25.437Z,27.08
2018-03-04T02:24:53.455Z,27.37
2018-03-04T02:27:21.478Z,26.67
2018-03-04T02:29:49.470Z,26.67
2018-03-04T02:32:17.532Z,28.00
2018-03-04T02:34:45.627Z,26.33
2018-03-04T02:37:13.656Z,27.08
2018-03-04T02:39:41.698Z,29.42
2018-03-04T02:42:09.735Z,27.52
2018-03-04T02:44:37.981Z,26.52
2018-03-04T02:47:06.037Z,26.58
2018-03-04T02:49:34.053Z,26.77
2018-03-04T02:52:02.086Z,27.35
2018-03-04T02:54:30.153Z,27.80
2018-03-04T02:56:58.169Z,25.62
2018-03-04T02:59:26.203Z,27.05
2018-03-04T03:01:54.198Z,27.48
2018-03-04T03:04:22.237Z,28.23
2018-03-04T03:06:50.234Z,26.20
2018-03-04T03:09:18.217Z,29.37
2018-03-04T03:11:46.249Z,28.12
2018-03-04T03:14:14.247Z,27.90
2018-03-04T03:16:42.335Z,27.58
2018-03-04T03:19:10.362Z,26.37
2018-03-04T03:21:38.378Z,26.58
2018-03-04T03:24:06.390Z,27.05
2018-03-04T03:26:34.597Z,26.05
2018-03-04T03:29:02.650Z,27.42
2018-03-04T03:31:30.651Z,30.60
2018-03-04T03:33:58.689Z,26.85
2018-03-04T03:36:26.691Z,29.35
2018-03-04T03:38:54.722Z,29.25
2018-03-04T03:41:22.731Z,28.23
2018-03-04T03:43:50.743Z,28.05
2018-03-04T03:46:18.764Z,27.70
2018-03-04T03:48:46.762Z,29.20
2018-03-04T03:51:14.785Z,25.70
2018-03-04T03:53:42.779Z,27.15
2018-03-04T03:56:10.817Z,29.48
2018-03-04T03:58:38.806Z,28.23
2018-03-04T04:01:06.790Z,27.70
2018-03-04T04:03:34.861Z,27.45
2018-03-04T04:06:02.906Z,27.98
2018-03-04T04:08:30.948Z,28.50
2018-03-04T04:10:58.980Z,29.25
2018-03-04T04:13:27.055Z,28.67
2018-03-04T04:15:55.079Z,29.63
2018-03-04T04:18:23.119Z,27.65
2018-03-04T04:20:51.131Z,28.70
2018-03-04T04:23:19.137Z,31.25
2018-03-04T04:25:47.203Z,31.05
2018-03-04T04:28:15.227Z,30.45
2018-03-04T04:30:43.250Z,28.70
2018-03-04T04:33:11.291Z,29.37
2018-03-04T04:35:39.291Z,27.30
2018-03-04T04:38:07.324Z,27.85
2018-03-04T04:40:35.266Z,28.60
2018-03-04T04:43:03.214Z,27.87
2018-03-04T04:45:31.166Z,27.65
2018-03-04T04:47:59.152Z,27.92
2018-03-04T04:50:27.073Z,28.65
2018-03-04T04:52:55.011Z,27.55
2018-03-04T04:55:22.938Z,25.70
2018-03-04T04:57:50.914Z,27.42
2018-03-04T05:00:18.842Z,27.73
2018-03-04T05:02:46.765Z,29.45
2018-03-04T05:05:14.761Z,27.52
2018-03-04T05:07:42.705Z,29.02
2018-03-04T05:10:10.646Z,29.87
2018-03-04T05:12:38.580Z,30.77
2018-03-04T05:15:06.530Z,28.92
2018-03-04T05:17:34.444Z,26.37
2018-03-04T05:20:02.422Z,26.70
2018-03-04T05:22:30.355Z,28.65
2018-03-04T05:24:58.286Z,28.48
2018-03-04T05:27:26.206Z,27.55
2018-03-04T05:29:54.167Z,28.62
2018-03-04T05:32:22.097Z,30.92
2018-03-04T05:34:50.880Z,27.70
2018-03-04T05:37:18.827Z,27.37
2018-03-04T05:39:46.766Z,30.67
2018-03-04T05:42:14.739Z,30.52
2018-03-04T05:44:42.682Z,27.02
2018-03-04T05:47:10.629Z,28.65
2018-03-04T05:49:38.589Z,28.38
2018-03-04T05:52:06.510Z,28.65
2018-03-04T05:54:34.418Z,27.85
2018-03-04T05:57:02.373Z,29.45
2018-03-04T05:59:30.293Z,27.67
2018-03-04T06:01:58.239Z,29.42
2018-03-04T06:04:26.179Z,30.33
2018-03-04T06:06:54.090Z,30.02
2018-03-04T06:09:22.059Z,30.58
2018-03-04T06:11:49.992Z,29.50
2018-03-04T06:14:17.903Z,30.33
2018-03-04T06:16:45.829Z,30.42
2018-03-04T06:19:13.757Z,31.10
2018-03-04T06:21:41.706Z,29.25
2018-03-04T06:24:09.632Z,29.08
2018-03-04T06:26:37.574Z,30.05
2018-03-04T06:29:05.678Z,30.40
2018-03-04T06:31:33.604Z,29.45
2018-03-04T06:34:01.556Z,30.23
2018-03-04T06:36:29.488Z,29.70
2018-03-04T06:38:57.428Z,28.10
2018-03-04T06:41:25.364Z,30.17
2018-03-04T06:43:53.289Z,30.48
2018-03-04T06:46:21.218Z,28.10
2018-03-04T06:48:49.148Z,29.85
2018-03-04T06:51:17.133Z,27.85
2018-03-04T06:53:45.810Z,29.45
2018-03-04T06:56:13.732Z,28.35
2018-03-04T06:58:41.678Z,29.48
2018-03-04T07:01:09.630Z,28.75
2018-03-04T07:03:37.578Z,29.25
2018-03-04T07:06:05.526Z,31.10
2018-03-04T07:08:33.473Z,29.80
2018-03-04T07:11:01.400Z,31.15
2018-03-04T07:13:29.355Z,29.35
2018-03-04T07:15:57.265Z,29.55
2018-03-04T07:18:25.201Z,31.17
2018-03-04T07:20:53.133Z,30.02
2018-03-04T07:23:21.091Z,30.98
2018-03-04T07:25:49.103Z,28.83
2018-03-04T07:28:17.080Z,26.70
2018-03-04T07:30:45.009Z,27.80
2018-03-04T07:33:12.918Z,29.00
2018-03-04T07:35:40.946Z,30.42
2018-03-04T07:38:09.018Z,31.60
2018-03-04T07:40:36.998Z,31.70
2018-03-04T07:43:04.896Z,30.83
2018-03-04T07:45:32.845Z,30.40
2018-03-04T07:48:00.801Z,28.48
2018-03-04T07:50:28.820Z,27.58
2018-03-04T07:52:56.816Z,27.58
2018-03-04T07:55:24.748Z,28.92
2018-03-04T07:57:53.234Z,27.58
2018-03-04T08:00:21.201Z,30.45
2018-03-04T08:02:49.174Z,28.65
2018-03-04T08:05:19.707Z,29.90
2018-03-04T08:08:24.630Z,27.00
2018-03-04T08:13:56.086Z,29.77
2018-03-04T08:16:43.574Z,30.05
2018-03-04T08:19:18.489Z,30.80
2018-03-04T08:21:46.432Z,28.62
2018-03-04T08:24:14.397Z,29.60
2018-03-04T08:26:54.315Z,26.77
2018-03-04T08:29:22.248Z,28.35
2018-03-04T08:31:50.188Z,28.12
2018-03-04T08:34:18.140Z,30.17
2018-03-04T08:36:46.156Z,29.05
2018-03-04T08:39:14.082Z,31.67
2018-03-04T08:41:42.058Z,28.80
2018-03-04T08:44:10.104Z,31.98
2018-03-04T08:46:38.155Z,28.60
2018-03-04T08:49:06.146Z,30.02
2018-03-04T08:51:34.074Z,29.98
2018-03-04T08:54:01.985Z,30.00
2018-03-04T08:56:30.018Z,31.35
2018-03-04T08:58:57.938Z,35.17
2018-03-04T09:01:25.931Z,30.05
2018-03-04T09:03:53.883Z,32.00
2018-03-04T09:06:21.831Z,32.20
2018-03-04T09:08:49.814Z,31.05
2018-03-04T09:11:17.744Z,32.08
2018-03-04T09:13:46.654Z,32.08
2018-03-04T09:16:14.627Z,31.40
2018-03-04T09:18:42.556Z,33.28
2018-03-04T09:21:10.497Z,32.53
2018-03-04T09:23:38.451Z,31.12
2018-03-04T09:26:06.434Z,30.02
2018-03-04T09:28:34.398Z,29.08
2018-03-04T09:31:02.353Z,29.05
2018-03-04T09:33:30.293Z,30.75
2018-03-04T09:35:58.232Z,29.92
2018-03-04T09:38:26.213Z,28.98
2018-03-04T09:40:54.385Z,31.45
2018-03-04T09:43:22.304Z,29.98
2018-03-04T09:45:50.254Z,30.77
2018-03-04T09:48:18.183Z,31.52
2018-03-04T09:50:46.109Z,30.37
2018-03-04T09:53:14.103Z,31.58
2018-03-04T09:55:42.047Z,29.25
2018-03-04T09:58:09.966Z,30.95
2018-03-04T10:00:37.919Z,30.05
2018-03-04T10:03:05.852Z,30.35
2018-03-04T10:05:33.780Z,31.27
2018-03-04T10:08:01.748Z,29.52
2018-03-04T10:10:29.656Z,27.40
2018-03-04T10:12:57.581Z,33.00
2018-03-04T10:15:25.524Z,30.20
2018-03-04T10:17:53.468Z,31.60
2018-03-04T10:20:21.403Z,32.55
2018-03-04T10:22:49.349Z,32.50
2018-03-04T10:25:17.315Z,31.40
2018-03-04T10:27:45.264Z,32.47
2018-03-04T10:30:13.215Z,32.42
2018-03-04T10:32:41.141Z,32.72
2018-03-04T10:35:09.092Z,31.83
2018-03-04T10:37:37.021Z,31.77
2018-03-04T10:40:04.986Z,32.42
2018-03-04T10:42:32.999Z,32.90
2018-03-04T10:45:00.912Z,32.20
2018-03-04T10:47:28.868Z,32.83
2018-03-04T10:49:56.805Z,31.60
2018-03-04T10:52:24.797Z,28.50
2018-03-04T10:54:52.695Z,32.78
2018-03-04T10:57:20.624Z,33.67
2018-03-04T10:59:48.544Z,29.95
2018-03-04T11:02:17.435Z,33.95
2018-03-04T11:04:45.366Z,31.20
2018-03-04T11:07:14.232Z,32.35
2018-03-04T11:09:42.221Z,34.78
2018-03-04T11:12:10.126Z,32.80
2018-03-04T11:14:38.095Z,31.15
2018-03-04T11:17:06.080Z,32.38
2018-03-04T11:19:34.053Z,33.13
2018-03-04T11:22:02.000Z,32.92
2018-03-04T11:24:29.934Z,33.85
2018-03-04T11:26:57.908Z,30.90
2018-03-04T11:29:25.912Z,34.55
2018-03-04T11:31:53.837Z,33.75
2018-03-04T11:34:21.762Z,34.47
2018-03-04T11:36:49.686Z,32.27
2018-03-04T11:39:17.728Z,32.80
2018-03-04T11:41:45.615Z,34.20
2018-03-04T11:44:13.552Z,34.03
2018-03-04T11:46:41.494Z,34.40
2018-03-04T11:49:09.406Z,34.97
2018-03-04T11:51:37.355Z,32.87
2018-03-04T11:54:05.261Z,32.60
2018-03-04T11:56:33.258Z,34.83
2018-03-04T11:59:01.141Z,32.97
2018-03-04T12:01:29.062Z,33.77
2018-03-04T12:03:57.033Z,34.20
2018-03-04T12:06:24.958Z,34.27
2018-03-04T12:08:52.912Z,31.83
2018-03-04T12:11:20.822Z,35.03
2018-03-04T12:13:48.791Z,33.10
2018-03-04T12:16:16.714Z,35.90
2018-03-04T12:18:44.675Z,33.70
2018-03-04T12:21:12.646Z,35.00
2018-03-04T12:23:40.588Z,33.67
2018-03-04T12:26:08.519Z,35.27
2018-03-04T12:28:36.609Z,35.40
2018-03-04T12:31:04.627Z,33.13
2018-03-04T12:33:32.565Z,33.47
2018-03-04T12:36:00.543Z,33.70
2018-03-04T12:38:28.509Z,34.77
2018-03-04T12:40:56.513Z,34.33
2018-03-04T12:43:24.607Z,33.83
2018-03-04T12:45:52.551Z,34.37
2018-03-04T12:48:20.526Z,33.00
2018-03-04T12:50:48.491Z,34.97
2018-03-04T12:53:16.511Z,32.67
2018-03-04T12:55:44.502Z,31.83
2018-03-04T12:58:12.449Z,35.43
2018-03-04T13:00:40.655Z,36.40
2018-03-04T13:03:08.591Z,33.57
2018-03-04T13:05:36.528Z,33.00
2018-03-04T13:08:04.477Z,31.27
2018-03-04T13:10:33.325Z,33.90
2018-03-04T13:13:01.352Z,33.83
2018-03-04T13:15:29.248Z,32.93
2018-03-04T13:17:57.175Z,30.53
2018-03-04T13:20:25.206Z,30.43
2018-03-04T13:22:53.137Z,31.23
2018-03-04T13:25:21.085Z,29.27
2018-03-04T13:27:49.259Z,32.50
2018-03-04T13:30:17.214Z,31.17
2018-03-04T13:32:45.142Z,32.13
2018-03-04T13:35:13.093Z,33.90
2018-03-04T13:37:41.017Z,32.53
2018-03-04T13:40:08.950Z,32.50
2018-03-04T13:42:36.885Z,30.10
2018-03-04T13:45:04.806Z,32.50
2018-03-04T13:47:32.764Z,31.30
2018-03-04T13:50:00.722Z,30.27
2018-03-04T13:52:28.640Z,33.10
2018-03-04T13:54:56.660Z,30.13
2018-03-04T13:57:24.668Z,31.20
2018-03-04T13:59:52.627Z,31.07
2018-03-04T14:02:20.572Z,28.73
2018-03-04T14:04:48.515Z,31.12
2018-03-04T14:07:16.483Z,33.75
2018-03-04T14:09:44.439Z,29.80
2018-03-04T14:12:12.369Z,32.97
2018-03-04T14:14:40.297Z,32.45
2018-03-04T14:17:08.281Z,33.45
2018-03-04T14:19:36.233Z,31.08
2018-03-04T14:22:04.159Z,32.20
2018-03-04T14:24:32.114Z,33.07
2018-03-04T14:27:00.043Z,29.85
2018-03-04T14:29:28.003Z,30.17
2018-03-04T14:31:55.913Z,30.90
2018-03-04T14:34:23.856Z,30.17
2018-03-04T14:36:51.810Z,29.87
2018-03-04T14:39:19.741Z,30.35
2018-03-04T14:41:47.783Z,29.17
2018-03-04T14:44:15.675Z,30.02
2018-03-04T14:46:43.624Z,27.90
2018-03-04T14:49:11.560Z,27.63
2018-03-04T14:51:39.536Z,29.90
2018-03-04T14:54:07.475Z,28.85
2018-03-04T14:56:35.503Z,28.62
2018-03-04T14:59:03.493Z,28.33
2018-03-04T15:01:31.442Z,28.73
2018-03-04T15:03:59.400Z,28.40
2018-03-04T15:06:27.322Z,28.05
2018-03-04T15:08:55.271Z,29.98
2018-03-04T15:11:23.176Z,29.40
2018-03-04T15:13:51.169Z,26.90
2018-03-04T15:16:19.103Z,29.10
2018-03-04T15:18:47.067Z,28.53
2018-03-04T15:21:15.012Z,28.77
2018-03-04T15:23:42.974Z,26.30
2018-03-04T15:26:11.066Z,27.10
2018-03-04T15:28:39.004Z,28.73
2018-03-04T15:31:06.999Z,28.33
2018-03-04T15:33:34.904Z,28.83
2018-03-04T15:36:02.872Z,29.67
2018-03-04T15:38:30.857Z,29.10
2018-03-04T15:40:58.802Z,28.12
2018-03-04T15:43:26.752Z,31.50
2018-03-04T15:45:54.692Z,29.13
2018-03-04T15:48:22.878Z,28.48
2018-03-04T15:50:50.846Z,27.73
2018-03-04T15:53:18.777Z,26.65
2018-03-04T15:55:47.063Z,27.48
2018-03-04T15:58:14.987Z,27.73
2018-03-04T16:00:42.943Z,26.35
2018-03-04T16:03:10.999Z,25.30
2018-03-04T16:05:38.942Z,28.23
2018-03-04T16:08:06.896Z,28.17
2018-03-04T16:10:34.848Z,28.67
2018-03-04T16:13:02.836Z,29.65
2018-03-04T16:15:30.819Z,24.63
2018-03-04T16:17:58.748Z,26.95
2018-03-04T16:20:26.821Z,27.05
2018-03-04T16:22:54.798Z,27.25
2018-03-04T16:25:22.770Z,30.65
2018-03-04T16:27:50.701Z,30.35
2018-03-04T16:30:18.653Z,27.25
2018-03-04T16:32:46.577Z,28.15
2018-03-04T16:35:14.589Z,26.95
2018-03-04T16:37:42.538Z,26.08
2018-03-04T16:40:10.478Z,27.05
2018-03-04T16:42:38.396Z,25.88
2018-03-04T16:45:06.323Z,26.20
2018-03-04T16:47:34.258Z,28.83
2018-03-04T16:50:02.230Z,26.57
2018-03-04T16:52:30.166Z,27.30
2018-03-04T16:54:58.120Z,27.27
2018-03-04T16:57:26.065Z,25.35
2018-03-04T16:59:54.002Z,26.85
2018-03-04T17:02:21.952Z,25.73
2018-03-04T17:04:49.950Z,24.93
2018-03-04T17:07:17.905Z,26.17
2018-03-04T17:09:45.848Z,25.73
2018-03-04T17:12:13.776Z,25.17
2018-03-04T17:14:41.720Z,23.40
2018-03-04T17:17:09.657Z,24.65
2018-03-04T17:19:37.603Z,24.48
2018-03-04T17:22:05.553Z,23.67
2018-03-04T17:24:33.486Z,23.65
2018-03-04T17:27:01.444Z,24.90
2018-03-04T17:29:29.360Z,25.77
2018-03-04T17:31:57.351Z,23.98
2018-03-04T17:34:25.361Z,27.10
2018-03-04T17:36:53.537Z,27.52
2018-03-04T17:39:21.484Z,27.48
2018-03-04T17:41:49.433Z,25.08
2018-03-04T17:44:17.409Z,25.67
2018-03-04T17:46:45.325Z,25.95
2018-03-04T17:49:13.284Z,26.20
2018-03-04T17:51:41.283Z,24.85
2018-03-04T17:54:09.223Z,26.42
2018-03-04T17:56:38.784Z,25.77
2018-03-04T17:59:07.802Z,29.40
2018-03-04T18:01:35.746Z,29.77
2018-03-04T18:04:03.764Z,26.02
2018-03-04T18:06:31.876Z,28.85
2018-03-04T18:08:59.949Z,26.45
2018-03-04T18:11:27.878Z,27.33
2018-03-04T18:13:55.850Z,26.08
2018-03-04T18:16:23.793Z,29.02
2018-03-04T18:18:51.730Z,29.60
2018-03-04T18:21:19.710Z,26.65
2018-03-04T18:23:47.644Z,27.33
2018-03-04T18:26:15.592Z,30.05
2018-03-04T18:28:43.621Z,27.35
2018-03-04T18:31:11.608Z,27.00
2018-03-04T18:33:39.512Z,26.27
2018-03-04T18:36:07.458Z,27.37
2018-03-04T18:38:35.390Z,26.10
2018-03-04T18:41:03.325Z,26.75
2018-03-04T18:43:31.284Z,30.10
2018-03-04T18:45:59.261Z,27.05
2018-03-04T18:48:27.201Z,27.00
2018-03-04T18:50:55.125Z,27.92
2018-03-04T18:53:23.054Z,26.77
2018-03-04T18:55:51.069Z,30.95
2018-03-04T18:58:18.997Z,27.30
2018-03-04T19:00:46.973Z,27.13
2018-03-04T19:03:15.048Z,28.73
2018-03-04T19:05:43.000Z,25.67
2018-03-04T19:08:11.064Z,26.67
2018-03-04T19:10:38.997Z,26.73
2018-03-04T19:13:06.958Z,27.77
2018-03-04T19:15:35.243Z,26.00
2018-03-04T19:18:03.257Z,27.52
2018-03-04T19:20:31.179Z,27.27
2018-03-04T19:22:59.098Z,28.80
2018-03-04T19:25:27.030Z,27.10
2018-03-04T19:27:54.956Z,28.12
2018-03-04T19:30:22.926Z,26.05
2018-03-04T19:32:50.868Z,28.35
2018-03-04T19:35:18.866Z,28.48
2018-03-04T19:37:46.857Z,31.10
2018-03-04T19:40:14.793Z,28.60
2018-03-04T19:42:42.841Z,28.38
2018-03-04T19:45:10.788Z,28.92
2018-03-04T19:47:38.769Z,31.15
2018-03-04T19:50:06.679Z,27.75
2018-03-04T19:52:34.648Z,29.17
2018-03-04T19:55:02.679Z,29.35
2018-03-04T19:57:30.704Z,27.40
2018-03-04T19:59:58.601Z,26.37
2018-03-04T20:02:26.528Z,32.22
2018-03-04T20:04:54.466Z,35.78
2018-03-04T20:07:22.385Z,32.25
2018-03-04T20:09:50.358Z,30.30
2018-03-04T20:12:18.282Z,28.50
2018-03-04T20:14:46.218Z,31.50
2018-03-04T20:17:14.169Z,29.27
2018-03-04T20:19:42.109Z,31.05
2018-03-04T20:22:10.107Z,32.15
2018-03-04T20:24:38.138Z,31.60
2018-03-04T20:27:06.106Z,30.70
2018-03-04T20:29:34.085Z,29.87
2018-03-04T20:32:02.022Z,30.02
2018-03-04T20:34:30.008Z,28.83
2018-03-04T20:36:58.090Z,26.73
2018-03-04T20:39:26.047Z,27.00
2018-03-04T20:41:53.966Z,32.08
2018-03-04T20:44:21.939Z,30.62
2018-03-04T20:46:50.070Z,30.00
2018-03-04T20:49:18.670Z,30.42
2018-03-04T20:51:46.611Z,26.98
2018-03-04T20:54:14.527Z,30.45
2018-03-04T20:56:42.494Z,29.95
2018-03-04T20:59:10.464Z,28.80
2018-03-04T21:01:38.401Z,27.10
2018-03-04T21:04:06.360Z,28.80
2018-03-04T21:06:34.329Z,27.45
2018-03-04T21:09:02.239Z,26.75
2018-03-04T21:11:30.185Z,29.20
2018-03-04T21:13:58.188Z,31.20
2018-03-04T21:16:26.111Z,31.08
2018-03-04T21:18:54.126Z,29.85
2018-03-04T21:21:22.057Z,28.77
2018-03-04T21:23:50.019Z,28.85
2018-03-04T21:26:17.948Z,29.95
2018-03-04T21:28:45.965Z,29.90
2018-03-04T21:31:13.897Z,30.12
2018-03-04T21:33:41.858Z,30.42
2018-03-04T21:36:09.793Z,30.37
2018-03-04T21:38:37.700Z,29.73
2018-03-04T21:41:05.789Z,28.90
2018-03-04T21:43:33.781Z,29.75
2018-03-04T21:46:01.746Z,32.22
2018-03-04T21:48:29.701Z,30.15
2018-03-04T21:50:57.720Z,29.27
2018-03-04T21:53:25.714Z,29.25
2018-03-04T21:55:53.622Z,31.27
2018-03-04T21:58:21.548Z,31.62
2018-03-04T22:00:49.461Z,29.87
2018-03-04T22:03:17.524Z,30.15
2018-03-04T22:05:45.430Z,29.25
2018-03-04T22:08:13.364Z,29.80
2018-03-04T22:10:41.305Z,30.80
2018-03-04T22:13:09.218Z,30.02
2018-03-04T22:15:37.165Z,28.95
2018-03-04T22:18:05.154Z,30.70
2018-03-04T22:20:33.112Z,32.28
2018-03-04T22:23:01.579Z,29.65
2018-03-04T22:25:29.944Z,30.15
2018-03-04T22:27:58.504Z,31.42
2018-03-04T22:30:26.520Z,31.75
2018-03-04T22:32:54.490Z,33.10
2018-03-04T22:35:22.406Z,31.17
2018-03-04T22:37:50.324Z,30.08
2018-03-04T22:40:18.272Z,31.15
2018-03-04T22:42:46.261Z,30.23
2018-03-04T22:45:14.189Z,33.22
2018-03-04T22:47:42.116Z,30.10
2018-03-04T22:50:10.080Z,31.33
2018-03-04T22:52:38.051Z,32.30
2018-03-04T22:55:06.010Z,31.17
2018-03-04T22:57:33.950Z,34.47
2018-03-04T23:00:01.886Z,31.35
2018-03-04T23:02:29.823Z,32.13
2018-03-04T23:04:58.509Z,33.28
2018-03-04T23:07:26.441Z,33.05
2018-03-04T23:09:54.381Z,33.90
2018-03-04T23:12:22.313Z,32.78
2018-03-04T23:14:50.216Z,34.05
2018-03-04T23:17:18.150Z,32.22
2018-03-04T23:19:46.119Z,34.88
2018-03-04T23:22:14.077Z,34.80
2018-03-04T23:24:41.990Z,32.13
2018-03-04T23:27:10.864Z,33.25
2018-03-04T23:29:38.814Z,35.55
2018-03-04T23:32:06.775Z,32.25
2018-03-04T23:34:34.696Z,34.28
2018-03-04T23:37:02.623Z,32.33
2018-03-04T23:39:30.687Z,33.00
2018-03-04T23:41:58.665Z,35.75
2018-03-04T23:44:26.640Z,32.85
2018-03-04T23:46:54.590Z,35.55
2018-03-04T23:49:22.516Z,33.30
2018-03-04T23:51:50.448Z,35.58
2018-03-04T23:54:18.485Z,36.15
2018-03-04T23:56:46.410Z,37.78
2018-03-04T23:59:14.386Z,32.60
